Time,TemperatureF,DewpointF,PressureIn,WindDirection,WindDirectionDegrees,WindSpeedMPH,WindSpeedGustMPH,Humidity,HourlyPrecipIn,Conditions,Clouds,dailyrainin,SoftwareType,DateUTC
2013-03-16 00:16:00,52.7,22.9,29.73,East,90,0.0,-999.0,31,-99.99,,,0.00,Acu-Link.com,2013-03-16 06:16:00,
2013-03-16 00:31:00,52.0,22.3,29.73,SSE,157,0.0,-999.0,31,-99.99,,,0.00,Acu-Link.com,2013-03-16 06:31:00,
2013-03-16 01:02:00,50.5,21.8,29.74,SSE,157,0.0,-999.0,32,-99.99,,,0.00,Acu-Link.com,2013-03-16 07:02:00,
2013-03-16 01:17:00,50.0,22.8,29.73,ESE,112,0.0,-999.0,34,-99.99,,,0.00,Acu-Link.com,2013-03-16 07:17:00,
2013-03-16 01:32:00,50.2,22.2,29.74,SSE,157,0.0,-999.0,33,-99.99,,,0.00,Acu-Link.com,2013-03-16 07:32:00,
2013-03-16 01:48:00,49.8,21.9,29.74,SSE,157,0.0,-999.0,33,-99.99,,,0.00,Acu-Link.com,2013-03-16 07:48:00,
2013-03-16 02:03:00,49.6,21.7,29.75,SSW,202,0.0,-999.0,33,-99.99,,,0.00,Acu-Link.com,2013-03-16 08:03:00,
2013-03-16 02:18:00,49.3,21.4,29.74,SSW,202,1.1,-999.0,33,-99.99,,,0.00,Acu-Link.com,2013-03-16 08:18:00,
2013-03-16 02:33:00,49.6,21.7,29.75,SSW,202,1.1,-999.0,33,-99.99,,,0.00,Acu-Link.com,2013-03-16 08:33:00,
2013-03-16 02:48:00,50.0,21.3,29.74,East,90,1.7,-999.0,32,-99.99,,,0.00,Acu-Link.com,2013-03-16 08:48:00,
2013-03-16 03:04:00,50.7,21.9,29.73,South,180,2.2,-999.0,32,-99.99,,,0.00,Acu-Link.com,2013-03-16 09:04:00,
2013-03-16 03:19:00,51.4,21.8,29.73,ESE,112,2.2,-999.0,31,-99.99,,,0.00,Acu-Link.com,2013-03-16 09:19:00,
2013-03-16 03:34:00,51.4,21.8,29.74,South,180,1.7,-999.0,31,-99.99,,,0.00,Acu-Link.com,2013-03-16 09:34:00,
2013-03-16 03:50:00,50.7,21.2,29.73,SE,135,0.0,-999.0,31,-99.99,,,0.00,Acu-Link.com,2013-03-16 09:50:00,
2013-03-16 04:05:00,50.2,21.5,29.73,SE,135,0.0,-999.0,32,-99.99,,,0.00,Acu-Link.com,2013-03-16 10:05:00,
2013-03-16 04:20:00,49.6,21.7,29.72,SE,135,1.1,-999.0,33,-99.99,,,0.00,Acu-Link.com,2013-03-16 10:20:00,
2013-03-16 04:36:00,49.1,22.0,29.72,SE,135,0.0,-999.0,34,-99.99,,,0.00,Acu-Link.com,2013-03-16 10:36:00,
2013-03-16 04:51:00,48.9,21.8,29.72,SSE,157,0.0,-999.0,34,-99.99,,,0.00,Acu-Link.com,2013-03-16 10:51:00,
2013-03-16 05:06:00,48.9,22.5,29.72,South,180,0.0,-999.0,35,-99.99,,,0.00,Acu-Link.com,2013-03-16 11:06:00,
2013-03-16 05:36:00,48.6,22.9,29.72,East,90,0.0,-999.0,36,-99.99,,,0.00,Acu-Link.com,2013-03-16 11:36:00,
2013-03-16 05:52:00,48.2,22.5,29.73,SE,135,0.0,-999.0,36,-99.99,,,0.00,Acu-Link.com,2013-03-16 11:52:00,
2013-03-16 06:07:00,47.7,22.7,29.72,SE,135,0.0,-999.0,37,-99.99,,,0.00,Acu-Link.com,2013-03-16 12:07:00,
2013-03-16 06:22:00,46.6,22.4,29.72,ESE,112,0.0,-999.0,38,-99.99,,,0.00,Acu-Link.com,2013-03-16 12:22:00,
2013-03-16 06:37:00,45.5,22.6,29.72,SSW,202,0.0,-999.0,40,-99.99,,,0.00,Acu-Link.com,2013-03-16 12:37:00,
2013-03-16 06:53:00,45.7,23.4,29.72,SE,135,0.0,-999.0,41,-99.99,,,0.00,Acu-Link.com,2013-03-16 12:53:00,
2013-03-16 07:08:00,45.3,23.6,29.71,SSW,202,0.0,-999.0,42,-99.99,,,0.00,Acu-Link.com,2013-03-16 13:08:00,
2013-03-16 07:23:00,44.6,24.6,29.73,SSW,202,0.0,-999.0,45,-99.99,,,0.00,Acu-Link.com,2013-03-16 13:23:00,
2013-03-16 07:38:00,44.6,24.1,29.72,ENE,67,0.0,-999.0,44,-99.99,,,0.00,Acu-Link.com,2013-03-16 13:38:00,
2013-03-16 07:54:00,45.7,25.6,29.72,SSW,202,0.0,-999.0,45,-99.99,,,0.00,Acu-Link.com,2013-03-16 13:54:00,
2013-03-16 08:09:00,48.6,26.6,29.73,SE,135,0.0,-999.0,42,-99.99,,,0.00,Acu-Link.com,2013-03-16 14:09:00,
2013-03-16 08:24:00,52.5,27.0,29.73,NNW,337,0.0,-999.0,37,-99.99,,,0.00,Acu-Link.com,2013-03-16 14:24:00,
2013-03-16 08:40:00,55.4,28.2,29.72,SSE,157,0.0,-999.0,35,-99.99,,,0.00,Acu-Link.com,2013-03-16 14:40:00,
2013-03-16 08:55:00,59.2,29.4,29.73,East,90,0.0,-999.0,32,-99.99,,,0.00,Acu-Link.com,2013-03-16 14:55:00,
2013-03-16 09:10:00,63.1,30.3,29.72,South,180,1.7,-999.0,29,-99.99,,,0.00,Acu-Link.com,2013-03-16 15:10:00,
2013-03-16 09:26:00,66.0,29.2,29.74,ESE,112,1.1,-999.0,25,-99.99,,,0.00,Acu-Link.com,2013-03-16 15:26:00,
2013-03-16 09:56:00,68.0,27.7,29.73,East,90,1.7,-999.0,22,-99.99,,,0.00,Acu-Link.com,2013-03-16 15:56:00,
2013-03-16 10:11:00,69.8,29.2,29.72,West,270,0.0,-999.0,22,-99.99,,,0.00,Acu-Link.com,2013-03-16 16:11:00,
2013-03-16 10:27:00,72.0,28.7,29.72,North,0,2.2,-999.0,20,-99.99,,,0.00,Acu-Link.com,2013-03-16 16:27:00,
2013-03-16 10:42:00,72.3,29.0,29.73,SSW,202,1.1,-999.0,20,-99.99,,,0.00,Acu-Link.com,2013-03-16 16:42:00,
2013-03-16 10:57:00,72.1,28.8,29.73,NNE,22,2.2,-999.0,20,-99.99,,,0.00,Acu-Link.com,2013-03-16 16:57:00,
2013-03-16 11:13:00,72.1,28.8,29.72,South,180,2.2,-999.0,20,-99.99,,,0.00,Acu-Link.com,2013-03-16 17:13:00,
2013-03-16 11:28:00,72.3,29.0,29.72,NE,45,3.2,-999.0,20,-99.99,,,0.00,Acu-Link.com,2013-03-16 17:28:00,
2013-03-16 11:43:00,72.1,30.0,29.71,SW,225,2.2,-999.0,21,-99.99,,,0.00,Acu-Link.com,2013-03-16 17:43:00,
2013-03-16 11:58:00,75.0,29.9,29.71,SW,225,6.3,-999.0,19,-99.99,,,0.00,Acu-Link.com,2013-03-16 17:58:00,
2013-03-16 12:14:00,76.5,29.8,29.70,SW,225,3.2,-999.0,18,-99.99,,,0.00,Acu-Link.com,2013-03-16 18:14:00,
2013-03-16 12:29:00,76.8,28.7,29.70,WSW,247,3.2,-999.0,17,-99.99,,,0.00,Acu-Link.com,2013-03-16 18:29:00,
2013-03-16 12:44:00,76.5,28.4,29.68,ESE,112,4.2,-999.0,17,-99.99,,,0.00,Acu-Link.com,2013-03-16 18:44:00,
2013-03-16 13:00:00,75.4,30.3,29.68,SW,225,6.3,-999.0,19,-99.99,,,0.00,Acu-Link.com,2013-03-16 19:00:00,
2013-03-16 13:15:00,74.3,30.6,29.66,SSE,157,3.7,-999.0,20,-99.99,,,0.00,Acu-Link.com,2013-03-16 19:15:00,
2013-03-16 13:30:00,74.1,29.2,29.64,West,270,3.2,-999.0,19,-99.99,,,0.00,Acu-Link.com,2013-03-16 19:30:00,
2013-03-16 13:46:00,75.0,29.9,29.63,West,270,2.7,-999.0,19,-99.99,,,0.00,Acu-Link.com,2013-03-16 19:46:00,
2013-03-16 14:16:00,75.0,28.6,29.62,SSW,202,2.2,-999.0,18,-99.99,,,0.00,Acu-Link.com,2013-03-16 20:16:00,
2013-03-16 14:31:00,74.7,28.4,29.61,SSW,202,5.3,-999.0,18,-99.99,,,0.00,Acu-Link.com,2013-03-16 20:31:00,
2013-03-16 14:46:00,72.7,29.3,29.59,North,0,5.8,-999.0,20,-99.99,,,0.00,Acu-Link.com,2013-03-16 20:46:00,
2013-03-16 15:02:00,72.5,27.9,29.60,South,180,3.2,-999.0,19,-99.99,,,0.00,Acu-Link.com,2013-03-16 21:02:00,
2013-03-16 15:17:00,71.6,28.4,29.59,WNW,292,4.2,-999.0,20,-99.99,,,0.00,Acu-Link.com,2013-03-16 21:17:00,
2013-03-16 15:47:00,71.8,27.3,29.57,West,270,1.7,-999.0,19,-99.99,,,0.00,Acu-Link.com,2013-03-16 21:47:00,
2013-03-16 16:03:00,73.4,27.3,29.58,East,90,5.8,-999.0,18,-99.99,,,0.00,Acu-Link.com,2013-03-16 22:03:00,
2013-03-16 16:18:00,73.2,27.2,29.57,SSE,157,2.2,-999.0,18,-99.99,,,0.00,Acu-Link.com,2013-03-16 22:18:00,
2013-03-16 16:33:00,73.9,26.3,29.55,South,180,3.7,-999.0,17,-99.99,,,0.00,Acu-Link.com,2013-03-16 22:33:00,
2013-03-16 16:48:00,74.1,26.5,29.55,WNW,292,3.2,-999.0,17,-99.99,,,0.00,Acu-Link.com,2013-03-16 22:48:00,
2013-03-16 17:04:00,73.9,27.7,29.54,WSW,247,5.8,-999.0,18,-99.99,,,0.00,Acu-Link.com,2013-03-16 23:04:00,
2013-03-16 17:19:00,73.2,27.2,29.55,ESE,112,4.7,-999.0,18,-99.99,,,0.00,Acu-Link.com,2013-03-16 23:19:00,
2013-03-16 17:34:00,74.8,27.1,29.53,WNW,292,5.8,-999.0,17,-99.99,,,0.00,Acu-Link.com,2013-03-16 23:34:00,
2013-03-16 17:50:00,73.8,26.3,29.53,SSW,202,4.7,-999.0,17,-99.99,,,0.00,Acu-Link.com,2013-03-16 23:50:00,
2013-03-16 18:05:00,74.1,26.5,29.53,North,0,0.0,-999.0,17,-99.99,,,0.00,Acu-Link.com,2013-03-17 00:05:00,
2013-03-16 18:20:00,72.7,23.9,29.53,WNW,292,3.2,-999.0,16,-99.99,,,0.00,Acu-Link.com,2013-03-17 00:20:00,
2013-03-16 18:35:00,71.6,24.5,29.53,North,0,0.0,-999.0,17,-99.99,,,0.00,Acu-Link.com,2013-03-17 00:35:00,
2013-03-16 18:51:00,70.7,23.8,29.54,North,0,1.7,-999.0,17,-99.99,,,0.00,Acu-Link.com,2013-03-17 00:51:00,
2013-03-16 19:06:00,70.0,25.8,29.54,West,270,2.7,-999.0,19,-99.99,,,0.00,Acu-Link.com,2013-03-17 01:06:00,
2013-03-16 19:36:00,66.4,33.2,29.56,SSW,202,3.7,-999.0,29,-99.99,,,0.00,Acu-Link.com,2013-03-17 01:36:00,
2013-03-16 19:52:00,65.1,34.5,29.56,East,90,1.7,-999.0,32,-99.99,,,0.00,Acu-Link.com,2013-03-17 01:52:00,
2013-03-16 20:07:00,63.5,36.1,29.57,East,90,2.7,-999.0,36,-99.99,,,0.00,Acu-Link.com,2013-03-17 02:07:00,
2013-03-16 20:22:00,62.6,36.6,29.58,NE,45,1.1,-999.0,38,-99.99,,,0.00,Acu-Link.com,2013-03-17 02:22:00,
2013-03-16 20:37:00,62.2,36.3,29.59,NE,45,1.1,-999.0,38,-99.99,,,0.00,Acu-Link.com,2013-03-17 02:37:00,
2013-03-16 20:52:00,62.4,36.5,29.59,ENE,67,3.7,-999.0,38,-99.99,,,0.00,Acu-Link.com,2013-03-17 02:52:00,
2013-03-16 21:08:00,62.1,36.2,29.60,West,270,2.2,-999.0,38,-99.99,,,0.00,Acu-Link.com,2013-03-17 03:08:00,
2013-03-16 21:23:00,62.1,36.2,29.60,East,90,4.2,-999.0,38,-99.99,,,0.00,Acu-Link.com,2013-03-17 03:23:00,
2013-03-16 21:38:00,62.1,36.2,29.60,NE,45,4.2,-999.0,38,-99.99,,,0.00,Acu-Link.com,2013-03-17 03:38:00,
2013-03-16 21:54:00,61.9,36.0,29.60,ENE,67,4.2,-999.0,38,-99.99,,,0.00,Acu-Link.com,2013-03-17 03:54:00,
2013-03-16 22:09:00,61.7,35.8,29.62,SSE,157,0.0,-999.0,38,-99.99,,,0.00,Acu-Link.com,2013-03-17 04:09:00,
2013-03-16 22:24:00,61.2,36.0,29.63,WNW,292,1.1,-999.0,39,-99.99,,,0.00,Acu-Link.com,2013-03-17 04:24:00,
2013-03-16 22:39:00,59.5,38.1,29.67,NE,45,11.9,-999.0,45,-99.99,,,0.00,Acu-Link.com,2013-03-17 04:39:00,
2013-03-16 22:54:00,56.5,39.6,29.70,SW,225,3.2,-999.0,53,-99.99,,,0.00,Acu-Link.com,2013-03-17 04:54:00,
2013-03-16 23:10:00,55.2,38.8,29.69,South,180,0.0,-999.0,54,-99.99,,,0.00,Acu-Link.com,2013-03-17 05:10:00,
2013-03-16 23:25:00,55.0,38.7,29.69,West,270,2.7,-999.0,54,-99.99,,,0.00,Acu-Link.com,2013-03-17 05:25:00,
2013-03-16 23:40:00,54.7,38.4,29.70,NNE,22,2.2,-999.0,54,-99.99,,,0.00,Acu-Link.com,2013-03-17 05:40:00,
2013-03-16 23:56:00,54.3,38.0,29.68,NE,45,1.1,-999.0,54,-99.99,,,0.00,Acu-Link.com,2013-03-17 05:56:00,